sensor_id;sensor_type;location;lat;lon;timestamp;P1;durP1;ratioP1;P2;durP2;ratioP2
30707;SDS011;17458;48.958;8.284;2023-06-22T00:01:09;6.88;;;3.80;;
30707;SDS011;17458;48.958;8.284;2023-06-22T00:03:56;5.45;;;4.28;;
30707;SDS011;17458;48.958;8.284;2023-06-22T00:06:40;7.45;;;4.00;;
30707;SDS011;17458;48.958;8.284;2023-06-22T00:09:24;6.22;;;3.67;;
30707;SDS011;17458;48.958;8.284;2023-06-22T00:12:08;11.15;;;5.18;;
30707;SDS011;17458;48.958;8.284;2023-06-22T00:14:57;5.80;;;4.30;;
30707;SDS011;17458;48.958;8.284;2023-06-22T00:17:41;6.95;;;4.13;;
30707;SDS011;17458;48.958;8.284;2023-06-22T00:20:26;8.80;;;4.05;;
30707;SDS011;17458;48.958;8.284;2023-06-22T00:23:11;7.00;;;4.63;;
30707;SDS011;17458;48.958;8.284;2023-06-22T00:25:57;11.63;;;4.65;;
30707;SDS011;17458;48.958;8.284;2023-06-22T00:28:41;15.15;;;6.43;;
30707;SDS011;17458;48.958;8.284;2023-06-22T00:31:25;11.30;;;5.68;;
30707;SDS011;17458;48.958;8.284;2023-06-22T00:34:11;13.25;;;6.50;;
30707;SDS011;17458;48.958;8.284;2023-06-22T00:36:55;10.63;;;6.22;;
30707;SDS011;17458;48.958;8.284;2023-06-22T00:39:41;13.85;;;6.68;;
30707;SDS011;17458;48.958;8.284;2023-06-22T00:42:26;12.00;;;7.13;;
30707;SDS011;17458;48.958;8.284;2023-06-22T00:45:10;11.05;;;7.00;;
30707;SDS011;17458;48.958;8.284;2023-06-22T00:47:56;10.77;;;6.93;;
30707;SDS011;17458;48.958;8.284;2023-06-22T00:50:42;9.57;;;6.95;;
30707;SDS011;17458;48.958;8.284;2023-06-22T00:53:26;17.02;;;6.75;;
30707;SDS011;17458;48.958;8.284;2023-06-22T00:56:12;16.83;;;7.65;;
30707;SDS011;17458;48.958;8.284;2023-06-22T00:58:56;9.98;;;6.85;;
30707;SDS011;17458;48.958;8.284;2023-06-22T01:01:42;11.32;;;7.00;;
30707;SDS011;17458;48.958;8.284;2023-06-22T01:04:34;12.50;;;7.45;;
30707;SDS011;17458;48.958;8.284;2023-06-22T01:07:21;10.05;;;7.43;;
30707;SDS011;17458;48.958;8.284;2023-06-22T01:13:11;10.77;;;8.07;;
30707;SDS011;17458;48.958;8.284;2023-06-22T01:16:05;11.77;;;8.93;;
30707;SDS011;17458;48.958;8.284;2023-06-22T01:18:57;13.15;;;8.60;;
30707;SDS011;17458;48.958;8.284;2023-06-22T01:21:45;10.98;;;8.48;;
30707;SDS011;17458;48.958;8.284;2023-06-22T01:24:37;15.48;;;9.50;;
30707;SDS011;17458;48.958;8.284;2023-06-22T01:30:26;17.40;;;9.85;;
30707;SDS011;17458;48.958;8.284;2023-06-22T01:33:14;15.10;;;8.43;;
30707;SDS011;17458;48.958;8.284;2023-06-22T01:36:00;16.90;;;9.65;;
30707;SDS011;17458;48.958;8.284;2023-06-22T01:38:45;14.57;;;9.15;;
30707;SDS011;17458;48.958;8.284;2023-06-22T01:41:34;11.43;;;8.48;;
30707;SDS011;17458;48.958;8.284;2023-06-22T01:44:20;18.15;;;8.40;;
30707;SDS011;17458;48.958;8.284;2023-06-22T01:47:05;9.77;;;8.02;;
30707;SDS011;17458;48.958;8.284;2023-06-22T01:49:51;17.38;;;8.48;;
30707;SDS011;17458;48.958;8.284;2023-06-22T01:52:38;11.85;;;8.13;;
30707;SDS011;17458;48.958;8.284;2023-06-22T01:55:22;11.63;;;9.43;;
30707;SDS011;17458;48.958;8.284;2023-06-22T01:58:07;13.25;;;8.05;;
30707;SDS011;17458;48.958;8.284;2023-06-22T02:01:06;12.23;;;8.00;;
30707;SDS011;17458;48.958;8.284;2023-06-22T02:04:02;9.55;;;8.48;;
30707;SDS011;17458;48.958;8.284;2023-06-22T02:06:51;18.80;;;10.57;;
30707;SDS011;17458;48.958;8.284;2023-06-22T02:09:41;10.80;;;8.40;;
30707;SDS011;17458;48.958;8.284;2023-06-22T02:12:28;14.32;;;9.07;;
30707;SDS011;17458;48.958;8.284;2023-06-22T02:15:15;13.25;;;8.10;;
30707;SDS011;17458;48.958;8.284;2023-06-22T02:18:00;10.23;;;8.18;;
30707;SDS011;17458;48.958;8.284;2023-06-22T02:20:44;11.10;;;8.68;;
30707;SDS011;17458;48.958;8.284;2023-06-22T02:23:28;11.70;;;8.50;;
30707;SDS011;17458;48.958;8.284;2023-06-22T02:26:12;12.85;;;8.73;;
30707;SDS011;17458;48.958;8.284;2023-06-22T02:28:56;16.05;;;9.27;;
30707;SDS011;17458;48.958;8.284;2023-06-22T02:31:40;13.93;;;8.10;;
30707;SDS011;17458;48.958;8.284;2023-06-22T02:34:25;11.18;;;7.88;;
30707;SDS011;17458;48.958;8.284;2023-06-22T02:37:08;12.50;;;8.00;;
30707;SDS011;17458;48.958;8.284;2023-06-22T02:39:57;11.68;;;8.50;;
30707;SDS011;17458;48.958;8.284;2023-06-22T02:42:41;16.88;;;8.32;;
30707;SDS011;17458;48.958;8.284;2023-06-22T02:45:26;13.13;;;8.38;;
30707;SDS011;17458;48.958;8.284;2023-06-22T02:48:10;13.40;;;9.00;;
30707;SDS011;17458;48.958;8.284;2023-06-22T02:50:55;14.05;;;8.32;;
30707;SDS011;17458;48.958;8.284;2023-06-22T02:53:40;14.82;;;8.73;;
30707;SDS011;17458;48.958;8.284;2023-06-22T02:56:28;12.38;;;8.70;;
30707;SDS011;17458;48.958;8.284;2023-06-22T02:59:16;13.73;;;8.45;;
30707;SDS011;17458;48.958;8.284;2023-06-22T03:02:02;11.52;;;8.05;;
30707;SDS011;17458;48.958;8.284;2023-06-22T03:04:49;14.60;;;8.55;;
30707;SDS011;17458;48.958;8.284;2023-06-22T03:07:33;18.58;;;8.82;;
30707;SDS011;17458;48.958;8.284;2023-06-22T03:10:17;11.88;;;8.00;;
30707;SDS011;17458;48.958;8.284;2023-06-22T03:13:01;16.25;;;7.95;;
30707;SDS011;17458;48.958;8.284;2023-06-22T03:15:45;10.32;;;7.68;;
30707;SDS011;17458;48.958;8.284;2023-06-22T03:18:30;13.38;;;8.35;;
30707;SDS011;17458;48.958;8.284;2023-06-22T03:21:14;12.93;;;9.13;;
30707;SDS011;17458;48.958;8.284;2023-06-22T03:23:59;12.43;;;7.63;;
30707;SDS011;17458;48.958;8.284;2023-06-22T03:26:43;10.45;;;8.23;;
30707;SDS011;17458;48.958;8.284;2023-06-22T03:29:29;15.30;;;8.35;;
30707;SDS011;17458;48.958;8.284;2023-06-22T03:32:13;11.48;;;8.82;;
30707;SDS011;17458;48.958;8.284;2023-06-22T03:34:57;13.00;;;7.90;;
30707;SDS011;17458;48.958;8.284;2023-06-22T03:37:43;13.65;;;8.90;;
30707;SDS011;17458;48.958;8.284;2023-06-22T03:40:27;13.65;;;8.07;;
30707;SDS011;17458;48.958;8.284;2023-06-22T03:43:11;15.80;;;7.82;;
30707;SDS011;17458;48.958;8.284;2023-06-22T03:45:55;12.45;;;8.85;;
30707;SDS011;17458;48.958;8.284;2023-06-22T03:48:40;16.27;;;8.98;;
30707;SDS011;17458;48.958;8.284;2023-06-22T03:51:24;10.25;;;8.40;;
30707;SDS011;17458;48.958;8.284;2023-06-22T03:54:08;11.20;;;9.77;;
30707;SDS011;17458;48.958;8.284;2023-06-22T03:56:52;14.13;;;10.18;;
30707;SDS011;17458;48.958;8.284;2023-06-22T03:59:36;13.38;;;8.23;;
30707;SDS011;17458;48.958;8.284;2023-06-22T04:02:20;11.88;;;8.45;;
30707;SDS011;17458;48.958;8.284;2023-06-22T04:05:04;11.73;;;8.90;;
30707;SDS011;17458;48.958;8.284;2023-06-22T04:07:48;12.65;;;9.65;;
30707;SDS011;17458;48.958;8.284;2023-06-22T04:10:32;13.90;;;9.55;;
30707;SDS011;17458;48.958;8.284;2023-06-22T04:13:16;11.95;;;9.40;;
30707;SDS011;17458;48.958;8.284;2023-06-22T04:16:00;16.08;;;9.15;;
30707;SDS011;17458;48.958;8.284;2023-06-22T04:18:44;17.48;;;8.75;;
30707;SDS011;17458;48.958;8.284;2023-06-22T04:21:28;12.77;;;9.52;;
30707;SDS011;17458;48.958;8.284;2023-06-22T04:24:12;9.32;;;7.90;;
30707;SDS011;17458;48.958;8.284;2023-06-22T04:26:56;12.10;;;8.85;;
30707;SDS011;17458;48.958;8.284;2023-06-22T04:29:40;23.52;;;10.15;;
30707;SDS011;17458;48.958;8.284;2023-06-22T04:32:32;16.90;;;8.45;;
30707;SDS011;17458;48.958;8.284;2023-06-22T04:35:17;13.73;;;8.68;;
30707;SDS011;17458;48.958;8.284;2023-06-22T04:38:01;15.50;;;8.68;;
30707;SDS011;17458;48.958;8.284;2023-06-22T04:40:47;14.27;;;9.07;;
30707;SDS011;17458;48.958;8.284;2023-06-22T04:43:30;14.25;;;8.38;;
30707;SDS011;17458;48.958;8.284;2023-06-22T04:46:14;11.10;;;8.55;;
30707;SDS011;17458;48.958;8.284;2023-06-22T04:48:58;16.92;;;9.82;;
30707;SDS011;17458;48.958;8.284;2023-06-22T04:51:42;15.82;;;8.85;;
30707;SDS011;17458;48.958;8.284;2023-06-22T04:54:27;12.75;;;8.10;;
30707;SDS011;17458;48.958;8.284;2023-06-22T04:57:11;13.73;;;8.55;;
30707;SDS011;17458;48.958;8.284;2023-06-22T04:59:56;13.52;;;8.18;;
30707;SDS011;17458;48.958;8.284;2023-06-22T05:02:40;13.73;;;8.15;;
30707;SDS011;17458;48.958;8.284;2023-06-22T05:05:25;13.23;;;8.27;;
30707;SDS011;17458;48.958;8.284;2023-06-22T05:08:09;19.60;;;8.82;;
30707;SDS011;17458;48.958;8.284;2023-06-22T05:10:52;12.63;;;7.85;;
30707;SDS011;17458;48.958;8.284;2023-06-22T05:13:36;17.23;;;9.75;;
30707;SDS011;17458;48.958;8.284;2023-06-22T05:16:20;13.80;;;8.02;;
30707;SDS011;17458;48.958;8.284;2023-06-22T05:19:08;15.45;;;8.32;;
30707;SDS011;17458;48.958;8.284;2023-06-22T05:21:52;9.05;;;7.13;;
30707;SDS011;17458;48.958;8.284;2023-06-22T05:24:36;10.57;;;7.13;;
30707;SDS011;17458;48.958;8.284;2023-06-22T05:27:20;18.50;;;8.68;;
30707;SDS011;17458;48.958;8.284;2023-06-22T05:30:04;9.98;;;7.05;;
30707;SDS011;17458;48.958;8.284;2023-06-22T05:32:50;9.73;;;7.68;;
30707;SDS011;17458;48.958;8.284;2023-06-22T05:35:36;12.85;;;7.88;;
30707;SDS011;17458;48.958;8.284;2023-06-22T05:38:20;9.23;;;7.68;;
30707;SDS011;17458;48.958;8.284;2023-06-22T05:41:04;14.10;;;8.43;;
30707;SDS011;17458;48.958;8.284;2023-06-22T05:43:49;16.30;;;8.32;;
30707;SDS011;17458;48.958;8.284;2023-06-22T05:46:34;18.42;;;8.98;;
30707;SDS011;17458;48.958;8.284;2023-06-22T05:49:18;11.50;;;7.95;;
30707;SDS011;17458;48.958;8.284;2023-06-22T05:52:02;15.80;;;8.75;;
30707;SDS011;17458;48.958;8.284;2023-06-22T05:54:47;10.43;;;7.15;;
30707;SDS011;17458;48.958;8.284;2023-06-22T05:57:31;12.23;;;7.35;;
30707;SDS011;17458;48.958;8.284;2023-06-22T06:00:15;12.45;;;7.63;;
30707;SDS011;17458;48.958;8.284;2023-06-22T06:03:00;12.55;;;7.18;;
30707;SDS011;17458;48.958;8.284;2023-06-22T06:05:47;15.73;;;8.82;;
30707;SDS011;17458;48.958;8.284;2023-06-22T06:08:31;11.98;;;8.00;;
30707;SDS011;17458;48.958;8.284;2023-06-22T06:11:15;19.65;;;8.20;;
30707;SDS011;17458;48.958;8.284;2023-06-22T06:13:59;12.18;;;7.13;;
30707;SDS011;17458;48.958;8.284;2023-06-22T06:16:43;15.05;;;7.85;;
30707;SDS011;17458;48.958;8.284;2023-06-22T06:19:27;15.43;;;8.10;;
30707;SDS011;17458;48.958;8.284;2023-06-22T06:22:11;8.90;;;7.43;;
30707;SDS011;17458;48.958;8.284;2023-06-22T06:24:55;16.77;;;7.80;;
30707;SDS011;17458;48.958;8.284;2023-06-22T06:27:39;10.02;;;7.22;;
30707;SDS011;17458;48.958;8.284;2023-06-22T06:30:23;15.52;;;7.70;;
30707;SDS011;17458;48.958;8.284;2023-06-22T06:33:07;13.55;;;7.45;;
30707;SDS011;17458;48.958;8.284;2023-06-22T06:35:52;14.63;;;7.22;;
30707;SDS011;17458;48.958;8.284;2023-06-22T06:38:36;12.23;;;6.70;;
30707;SDS011;17458;48.958;8.284;2023-06-22T06:41:20;13.93;;;7.32;;
30707;SDS011;17458;48.958;8.284;2023-06-22T06:44:05;13.43;;;8.10;;
30707;SDS011;17458;48.958;8.284;2023-06-22T06:46:49;15.60;;;7.22;;
30707;SDS011;17458;48.958;8.284;2023-06-22T06:49:34;15.43;;;7.75;;
30707;SDS011;17458;48.958;8.284;2023-06-22T06:52:17;12.93;;;7.18;;
30707;SDS011;17458;48.958;8.284;2023-06-22T06:55:03;13.15;;;7.35;;
30707;SDS011;17458;48.958;8.284;2023-06-22T06:57:48;13.25;;;6.63;;
30707;SDS011;17458;48.958;8.284;2023-06-22T07:00:33;16.00;;;7.43;;
30707;SDS011;17458;48.958;8.284;2023-06-22T07:03:17;13.48;;;8.13;;
30707;SDS011;17458;48.958;8.284;2023-06-22T07:06:01;15.27;;;7.35;;
30707;SDS011;17458;48.958;8.284;2023-06-22T07:08:45;10.02;;;6.13;;
30707;SDS011;17458;48.958;8.284;2023-06-22T07:11:29;12.73;;;7.90;;
30707;SDS011;17458;48.958;8.284;2023-06-22T07:14:13;8.48;;;6.45;;
30707;SDS011;17458;48.958;8.284;2023-06-22T07:16:58;18.15;;;6.43;;
30707;SDS011;17458;48.958;8.284;2023-06-22T07:19:42;10.00;;;5.95;;
30707;SDS011;17458;48.958;8.284;2023-06-22T07:22:26;15.65;;;6.65;;
30707;SDS011;17458;48.958;8.284;2023-06-22T07:25:10;11.50;;;6.82;;
30707;SDS011;17458;48.958;8.284;2023-06-22T07:30:42;18.58;;;6.70;;
30707;SDS011;17458;48.958;8.284;2023-06-22T07:33:26;15.27;;;6.47;;
30707;SDS011;17458;48.958;8.284;2023-06-22T07:36:11;12.00;;;5.78;;
30707;SDS011;17458;48.958;8.284;2023-06-22T07:38:56;7.97;;;5.68;;
30707;SDS011;17458;48.958;8.284;2023-06-22T07:41:40;8.50;;;5.95;;
30707;SDS011;17458;48.958;8.284;2023-06-22T07:44:27;12.15;;;5.38;;
30707;SDS011;17458;48.958;8.284;2023-06-22T07:47:11;16.33;;;7.03;;
30707;SDS011;17458;48.958;8.284;2023-06-22T07:49:55;13.68;;;5.57;;
30707;SDS011;17458;48.958;8.284;2023-06-22T07:52:44;10.95;;;6.03;;
30707;SDS011;17458;48.958;8.284;2023-06-22T07:55:28;9.02;;;5.47;;
30707;SDS011;17458;48.958;8.284;2023-06-22T07:58:12;7.70;;;5.78;;
30707;SDS011;17458;48.958;8.284;2023-06-22T08:00:56;13.05;;;6.18;;
30707;SDS011;17458;48.958;8.284;2023-06-22T08:03:40;10.63;;;6.28;;
30707;SDS011;17458;48.958;8.284;2023-06-22T08:06:24;12.63;;;6.00;;
30707;SDS011;17458;48.958;8.284;2023-06-22T08:09:08;13.23;;;5.45;;
30707;SDS011;17458;48.958;8.284;2023-06-22T08:11:52;15.77;;;5.80;;
30707;SDS011;17458;48.958;8.284;2023-06-22T08:14:37;10.02;;;5.40;;
30707;SDS011;17458;48.958;8.284;2023-06-22T08:17:22;14.45;;;5.82;;
30707;SDS011;17458;48.958;8.284;2023-06-22T08:20:07;13.60;;;6.22;;
30707;SDS011;17458;48.958;8.284;2023-06-22T08:22:58;8.05;;;5.55;;
30707;SDS011;17458;48.958;8.284;2023-06-22T08:25:48;13.75;;;6.40;;
30707;SDS011;17458;48.958;8.284;2023-06-22T08:28:34;11.05;;;5.30;;
30707;SDS011;17458;48.958;8.284;2023-06-22T08:31:18;13.75;;;5.72;;
30707;SDS011;17458;48.958;8.284;2023-06-22T08:34:02;11.73;;;6.07;;
30707;SDS011;17458;48.958;8.284;2023-06-22T08:36:47;16.08;;;6.47;;
30707;SDS011;17458;48.958;8.284;2023-06-22T08:39:36;8.20;;;5.05;;
30707;SDS011;17458;48.958;8.284;2023-06-22T08:42:20;6.72;;;4.75;;
30707;SDS011;17458;48.958;8.284;2023-06-22T08:45:04;9.73;;;5.05;;
30707;SDS011;17458;48.958;8.284;2023-06-22T08:47:49;13.43;;;5.38;;
30707;SDS011;17458;48.958;8.284;2023-06-22T08:50:33;14.90;;;5.30;;
30707;SDS011;17458;48.958;8.284;2023-06-22T08:53:17;18.60;;;4.85;;
30707;SDS011;17458;48.958;8.284;2023-06-22T08:56:01;13.27;;;5.60;;
30707;SDS011;17458;48.958;8.284;2023-06-22T08:58:45;10.68;;;5.60;;
30707;SDS011;17458;48.958;8.284;2023-06-22T09:01:29;15.20;;;5.18;;
30707;SDS011;17458;48.958;8.284;2023-06-22T09:04:13;11.88;;;5.80;;
30707;SDS011;17458;48.958;8.284;2023-06-22T09:06:58;9.20;;;5.47;;
30707;SDS011;17458;48.958;8.284;2023-06-22T09:09:41;10.40;;;5.72;;
30707;SDS011;17458;48.958;8.284;2023-06-22T09:12:25;13.00;;;5.50;;
30707;SDS011;17458;48.958;8.284;2023-06-22T09:15:11;10.85;;;5.75;;
30707;SDS011;17458;48.958;8.284;2023-06-22T09:17:54;11.73;;;5.95;;
30707;SDS011;17458;48.958;8.284;2023-06-22T09:20:39;9.25;;;5.45;;
30707;SDS011;17458;48.958;8.284;2023-06-22T09:23:23;9.38;;;5.32;;
30707;SDS011;17458;48.958;8.284;2023-06-22T09:26:07;12.95;;;5.85;;
30707;SDS011;17458;48.958;8.284;2023-06-22T09:28:52;12.02;;;7.03;;
30707;SDS011;17458;48.958;8.284;2023-06-22T09:31:36;12.52;;;5.72;;
30707;SDS011;17458;48.958;8.284;2023-06-22T09:34:20;10.73;;;5.90;;
30707;SDS011;17458;48.958;8.284;2023-06-22T09:37:04;17.60;;;6.88;;
30707;SDS011;17458;48.958;8.284;2023-06-22T09:39:48;7.78;;;5.70;;
30707;SDS011;17458;48.958;8.284;2023-06-22T09:42:32;15.77;;;5.93;;
30707;SDS011;17458;48.958;8.284;2023-06-22T09:45:16;11.75;;;5.57;;
30707;SDS011;17458;48.958;8.284;2023-06-22T09:48:01;13.68;;;5.82;;
30707;SDS011;17458;48.958;8.284;2023-06-22T09:50:44;11.18;;;6.15;;
30707;SDS011;17458;48.958;8.284;2023-06-22T09:53:28;14.95;;;5.78;;
30707;SDS011;17458;48.958;8.284;2023-06-22T09:56:12;9.60;;;5.63;;
30707;SDS011;17458;48.958;8.284;2023-06-22T09:58:58;14.50;;;6.10;;
30707;SDS011;17458;48.958;8.284;2023-06-22T10:01:42;12.23;;;6.93;;
30707;SDS011;17458;48.958;8.284;2023-06-22T10:04:26;9.52;;;5.38;;
30707;SDS011;17458;48.958;8.284;2023-06-22T10:07:10;12.85;;;6.57;;
30707;SDS011;17458;48.958;8.284;2023-06-22T10:09:54;11.68;;;6.32;;
30707;SDS011;17458;48.958;8.284;2023-06-22T10:12:42;15.77;;;6.25;;
30707;SDS011;17458;48.958;8.284;2023-06-22T10:15:29;11.13;;;5.57;;
30707;SDS011;17458;48.958;8.284;2023-06-22T10:18:13;10.55;;;5.95;;
30707;SDS011;17458;48.958;8.284;2023-06-22T10:20:57;11.52;;;5.32;;
30707;SDS011;17458;48.958;8.284;2023-06-22T10:23:41;18.55;;;6.00;;
30707;SDS011;17458;48.958;8.284;2023-06-22T10:26:25;7.38;;;5.85;;
30707;SDS011;17458;48.958;8.284;2023-06-22T10:29:12;12.77;;;5.43;;
30707;SDS011;17458;48.958;8.284;2023-06-22T10:31:56;9.75;;;6.13;;
30707;SDS011;17458;48.958;8.284;2023-06-22T10:34:40;9.75;;;5.63;;
30707;SDS011;17458;48.958;8.284;2023-06-22T10:37:25;8.07;;;6.43;;
30707;SDS011;17458;48.958;8.284;2023-06-22T10:40:09;14.45;;;6.30;;
30707;SDS011;17458;48.958;8.284;2023-06-22T10:42:54;10.60;;;5.75;;
30707;SDS011;17458;48.958;8.284;2023-06-22T10:45:38;11.23;;;6.03;;
30707;SDS011;17458;48.958;8.284;2023-06-22T10:48:22;9.77;;;5.18;;
30707;SDS011;17458;48.958;8.284;2023-06-22T10:51:06;13.40;;;6.55;;
30707;SDS011;17458;48.958;8.284;2023-06-22T10:53:50;9.15;;;5.82;;
30707;SDS011;17458;48.958;8.284;2023-06-22T10:56:34;9.57;;;5.35;;
30707;SDS011;17458;48.958;8.284;2023-06-22T10:59:18;9.50;;;5.63;;
30707;SDS011;17458;48.958;8.284;2023-06-22T11:02:05;11.15;;;6.30;;
30707;SDS011;17458;48.958;8.284;2023-06-22T11:04:49;8.45;;;5.78;;
30707;SDS011;17458;48.958;8.284;2023-06-22T11:07:33;10.50;;;5.40;;
30707;SDS011;17458;48.958;8.284;2023-06-22T11:10:17;9.63;;;4.95;;
30707;SDS011;17458;48.958;8.284;2023-06-22T11:13:01;12.50;;;5.82;;
30707;SDS011;17458;48.958;8.284;2023-06-22T11:15:48;15.23;;;6.30;;
30707;SDS011;17458;48.958;8.284;2023-06-22T11:18:32;13.32;;;5.35;;
30707;SDS011;17458;48.958;8.284;2023-06-22T11:21:17;12.82;;;5.43;;
30707;SDS011;17458;48.958;8.284;2023-06-22T11:24:01;11.25;;;6.20;;
30707;SDS011;17458;48.958;8.284;2023-06-22T11:26:45;10.95;;;4.80;;
30707;SDS011;17458;48.958;8.284;2023-06-22T11:29:29;12.32;;;5.28;;
30707;SDS011;17458;48.958;8.284;2023-06-22T11:32:17;11.30;;;5.45;;
30707;SDS011;17458;48.958;8.284;2023-06-22T11:35:01;14.40;;;5.78;;
30707;SDS011;17458;48.958;8.284;2023-06-22T11:37:44;13.38;;;5.40;;
30707;SDS011;17458;48.958;8.284;2023-06-22T11:40:28;14.63;;;6.00;;
30707;SDS011;17458;48.958;8.284;2023-06-22T11:43:12;12.80;;;5.32;;
30707;SDS011;17458;48.958;8.284;2023-06-22T11:45:59;12.10;;;5.70;;
30707;SDS011;17458;48.958;8.284;2023-06-22T11:48:44;9.27;;;5.50;;
30707;SDS011;17458;48.958;8.284;2023-06-22T11:51:29;8.57;;;5.00;;
30707;SDS011;17458;48.958;8.284;2023-06-22T11:54:15;9.45;;;5.43;;
30707;SDS011;17458;48.958;8.284;2023-06-22T11:56:59;12.93;;;5.07;;
30707;SDS011;17458;48.958;8.284;2023-06-22T11:59:43;9.07;;;5.35;;
30707;SDS011;17458;48.958;8.284;2023-06-22T12:02:27;12.90;;;5.22;;
30707;SDS011;17458;48.958;8.284;2023-06-22T12:05:11;14.98;;;5.53;;
30707;SDS011;17458;48.958;8.284;2023-06-22T12:07:56;15.23;;;6.55;;
30707;SDS011;17458;48.958;8.284;2023-06-22T12:10:40;7.28;;;4.80;;
30707;SDS011;17458;48.958;8.284;2023-06-22T12:13:24;11.57;;;4.95;;
30707;SDS011;17458;48.958;8.284;2023-06-22T12:16:08;11.77;;;5.85;;
30707;SDS011;17458;48.958;8.284;2023-06-22T12:18:52;12.18;;;4.80;;
30707;SDS011;17458;48.958;8.284;2023-06-22T12:21:39;14.75;;;5.82;;
30707;SDS011;17458;48.958;8.284;2023-06-22T12:24:24;20.20;;;6.05;;
30707;SDS011;17458;48.958;8.284;2023-06-22T12:27:08;13.95;;;5.22;;
30707;SDS011;17458;48.958;8.284;2023-06-22T12:29:53;8.15;;;4.45;;
30707;SDS011;17458;48.958;8.284;2023-06-22T12:32:37;13.43;;;6.53;;
30707;SDS011;17458;48.958;8.284;2023-06-22T12:35:21;15.32;;;5.70;;
30707;SDS011;17458;48.958;8.284;2023-06-22T12:38:08;8.88;;;5.75;;
30707;SDS011;17458;48.958;8.284;2023-06-22T12:40:53;12.43;;;6.25;;
30707;SDS011;17458;48.958;8.284;2023-06-22T12:43:37;9.32;;;6.03;;
30707;SDS011;17458;48.958;8.284;2023-06-22T12:46:21;12.60;;;5.60;;
30707;SDS011;17458;48.958;8.284;2023-06-22T12:49:07;11.07;;;5.65;;
30707;SDS011;17458;48.958;8.284;2023-06-22T12:51:51;12.95;;;5.50;;
30707;SDS011;17458;48.958;8.284;2023-06-22T12:54:35;10.68;;;5.68;;
30707;SDS011;17458;48.958;8.284;2023-06-22T12:57:19;13.25;;;5.65;;
30707;SDS011;17458;48.958;8.284;2023-06-22T13:00:03;13.40;;;5.82;;
30707;SDS011;17458;48.958;8.284;2023-06-22T13:02:49;11.43;;;5.65;;
30707;SDS011;17458;48.958;8.284;2023-06-22T13:05:33;15.00;;;6.28;;
30707;SDS011;17458;48.958;8.284;2023-06-22T13:08:18;18.55;;;6.20;;
30707;SDS011;17458;48.958;8.284;2023-06-22T13:11:02;10.40;;;5.78;;
30707;SDS011;17458;48.958;8.284;2023-06-22T13:13:46;13.35;;;5.75;;
30707;SDS011;17458;48.958;8.284;2023-06-22T13:16:30;12.70;;;6.60;;
30707;SDS011;17458;48.958;8.284;2023-06-22T13:19:14;18.05;;;6.43;;
30707;SDS011;17458;48.958;8.284;2023-06-22T13:21:58;13.45;;;6.03;;
30707;SDS011;17458;48.958;8.284;2023-06-22T13:24:43;12.50;;;5.38;;
30707;SDS011;17458;48.958;8.284;2023-06-22T13:27:27;11.07;;;5.40;;
30707;SDS011;17458;48.958;8.284;2023-06-22T13:30:11;20.92;;;5.80;;
30707;SDS011;17458;48.958;8.284;2023-06-22T13:32:55;15.38;;;5.75;;
30707;SDS011;17458;48.958;8.284;2023-06-22T13:35:39;10.00;;;5.18;;
30707;SDS011;17458;48.958;8.284;2023-06-22T13:38:26;13.43;;;5.82;;
30707;SDS011;17458;48.958;8.284;2023-06-22T13:41:10;16.98;;;5.47;;
30707;SDS011;17458;48.958;8.284;2023-06-22T13:43:54;11.88;;;5.85;;
30707;SDS011;17458;48.958;8.284;2023-06-22T13:46:38;13.77;;;5.82;;
30707;SDS011;17458;48.958;8.284;2023-06-22T13:49:22;10.77;;;5.72;;
30707;SDS011;17458;48.958;8.284;2023-06-22T13:52:06;13.00;;;5.72;;
30707;SDS011;17458;48.958;8.284;2023-06-22T13:54:53;18.83;;;6.50;;
30707;SDS011;17458;48.958;8.284;2023-06-22T13:57:38;12.20;;;5.32;;
30707;SDS011;17458;48.958;8.284;2023-06-22T14:00:21;14.40;;;5.40;;
30707;SDS011;17458;48.958;8.284;2023-06-22T14:03:06;12.02;;;5.78;;
30707;SDS011;17458;48.958;8.284;2023-06-22T14:05:50;15.05;;;5.82;;
30707;SDS011;17458;48.958;8.284;2023-06-22T14:08:37;13.68;;;6.50;;
30707;SDS011;17458;48.958;8.284;2023-06-22T14:11:21;12.48;;;5.78;;
30707;SDS011;17458;48.958;8.284;2023-06-22T14:14:06;22.73;;;6.57;;
30707;SDS011;17458;48.958;8.284;2023-06-22T14:16:50;17.55;;;6.38;;
30707;SDS011;17458;48.958;8.284;2023-06-22T14:19:34;14.15;;;6.60;;
30707;SDS011;17458;48.958;8.284;2023-06-22T14:22:18;14.43;;;6.10;;
30707;SDS011;17458;48.958;8.284;2023-06-22T14:25:04;12.63;;;6.15;;
30707;SDS011;17458;48.958;8.284;2023-06-22T14:27:48;13.82;;;6.35;;
30707;SDS011;17458;48.958;8.284;2023-06-22T14:30:32;18.48;;;6.18;;
30707;SDS011;17458;48.958;8.284;2023-06-22T14:33:16;14.50;;;7.00;;
30707;SDS011;17458;48.958;8.284;2023-06-22T14:36:00;13.27;;;6.60;;
30707;SDS011;17458;48.958;8.284;2023-06-22T14:38:44;20.98;;;7.50;;
30707;SDS011;17458;48.958;8.284;2023-06-22T14:41:30;17.15;;;7.80;;
30707;SDS011;17458;48.958;8.284;2023-06-22T14:44:14;17.00;;;7.68;;
30707;SDS011;17458;48.958;8.284;2023-06-22T14:46:59;19.45;;;7.85;;
30707;SDS011;17458;48.958;8.284;2023-06-22T14:49:43;14.18;;;7.05;;
30707;SDS011;17458;48.958;8.284;2023-06-22T14:52:27;15.40;;;7.35;;
30707;SDS011;17458;48.958;8.284;2023-06-22T14:55:11;17.63;;;8.07;;
30707;SDS011;17458;48.958;8.284;2023-06-22T14:57:55;22.95;;;8.07;;
30707;SDS011;17458;48.958;8.284;2023-06-22T15:00:39;16.33;;;6.88;;
30707;SDS011;17458;48.958;8.284;2023-06-22T15:03:23;17.90;;;7.35;;
30707;SDS011;17458;48.958;8.284;2023-06-22T15:06:11;15.68;;;6.22;;
30707;SDS011;17458;48.958;8.284;2023-06-22T15:08:55;13.60;;;5.70;;
30707;SDS011;17458;48.958;8.284;2023-06-22T15:11:39;14.30;;;6.88;;
30707;SDS011;17458;48.958;8.284;2023-06-22T15:14:23;16.90;;;6.20;;
30707;SDS011;17458;48.958;8.284;2023-06-22T15:17:08;20.27;;;6.97;;
30707;SDS011;17458;48.958;8.284;2023-06-22T15:19:53;19.58;;;7.25;;
30707;SDS011;17458;48.958;8.284;2023-06-22T15:22:37;18.48;;;5.95;;
30707;SDS011;17458;48.958;8.284;2023-06-22T15:25:21;16.83;;;5.13;;
30707;SDS011;17458;48.958;8.284;2023-06-22T15:28:05;17.02;;;6.15;;
30707;SDS011;17458;48.958;8.284;2023-06-22T15:30:49;15.18;;;4.93;;
30707;SDS011;17458;48.958;8.284;2023-06-22T15:33:34;11.43;;;5.25;;
30707;SDS011;17458;48.958;8.284;2023-06-22T15:36:18;12.23;;;5.35;;
30707;SDS011;17458;48.958;8.284;2023-06-22T15:39:02;15.80;;;5.97;;
30707;SDS011;17458;48.958;8.284;2023-06-22T15:41:46;9.13;;;5.10;;
30707;SDS011;17458;48.958;8.284;2023-06-22T15:44:30;15.60;;;5.75;;
30707;SDS011;17458;48.958;8.284;2023-06-22T15:47:14;12.20;;;5.65;;
30707;SDS011;17458;48.958;8.284;2023-06-22T15:50:00;13.93;;;6.10;;
30707;SDS011;17458;48.958;8.284;2023-06-22T15:52:44;12.93;;;6.00;;
30707;SDS011;17458;48.958;8.284;2023-06-22T15:55:31;14.77;;;6.07;;
30707;SDS011;17458;48.958;8.284;2023-06-22T15:58:15;10.80;;;5.70;;
30707;SDS011;17458;48.958;8.284;2023-06-22T16:01:00;15.75;;;6.70;;
30707;SDS011;17458;48.958;8.284;2023-06-22T16:03:44;11.48;;;5.88;;
30707;SDS011;17458;48.958;8.284;2023-06-22T16:06:28;18.60;;;5.78;;
30707;SDS011;17458;48.958;8.284;2023-06-22T16:09:13;15.52;;;5.25;;
30707;SDS011;17458;48.958;8.284;2023-06-22T16:11:58;14.90;;;5.50;;
30707;SDS011;17458;48.958;8.284;2023-06-22T16:14:42;15.20;;;5.40;;
30707;SDS011;17458;48.958;8.284;2023-06-22T16:17:26;17.55;;;5.63;;
30707;SDS011;17458;48.958;8.284;2023-06-22T16:20:10;17.98;;;5.38;;
30707;SDS011;17458;48.958;8.284;2023-06-22T16:22:55;14.68;;;5.65;;
30707;SDS011;17458;48.958;8.284;2023-06-22T16:25:39;13.05;;;5.55;;
30707;SDS011;17458;48.958;8.284;2023-06-22T16:28:23;14.43;;;5.18;;